Time;durP1;ratioP1;P1;durP2;ratioP2;P2;SDS_P1;SDS_P2;PMS_P1;PMS_P2;Temp;Humidity;BMP_temperature;BMP_pressure;BME280_temperature;BME280_humidity;BME280_pressure;Samples;Min_cycle;Max_cycle;Signal;HPM_P1;HPM_P2
2023/08/11 00:00:21;;;;;;;6.95;6.13;;;;;;;;;;6302427;22;20018;-94
2023/08/11 00:02:47;;;;;;;7.20;5.10;;;;;;;;;;6304297;22;20015;-93
2023/08/11 00:05:13;;;;;;;6.30;4.88;;;;;;;;;;6275678;22;20122;-93
2023/08/11 00:07:39;;;;;;;7.05;5.63;;;;;;;;;;6303689;22;20011;-93
2023/08/11 00:10:05;;;;;;;7.18;5.60;;;;;;;;;;6278669;22;20019;-93
2023/08/11 00:12:31;;;;;;;6.78;5.20;;;;;;;;;;6276793;22;20069;-94
2023/08/11 00:14:57;;;;;;;8.52;5.53;;;;;;;;;;6279770;22;20015;-94
2023/08/11 00:17:23;;;;;;;7.30;5.75;;;;;;;;;;6276750;22;20108;-94
2023/08/11 00:19:49;;;;;;;7.43;6.13;;;;;;;;;;6276613;22;20019;-94
2023/08/11 00:22:15;;;;;;;6.75;5.57;;;;;;;;;;6303362;22;20015;-93
2023/08/11 00:24:41;;;;;;;6.97;5.95;;;;;;;;;;6276182;22;20400;-94
2023/08/11 00:27:07;;;;;;;9.60;6.40;;;;;;;;;;6276466;22;20015;-94
2023/08/11 00:29:33;;;;;;;8.27;6.53;;;;;;;;;;6304401;22;20019;-93
2023/08/11 00:32:00;;;;;;;8.30;5.85;;;;;;;;;;6303900;22;20015;-94
2023/08/11 00:34:26;;;;;;;7.07;6.35;;;;;;;;;;6303649;22;20015;-94
2023/08/11 00:36:55;;;;;;;7.78;6.25;;;;;;;;;;6304003;22;20082;-93
2023/08/11 00:39:21;;;;;;;7.32;6.50;;;;;;;;;;6303068;22;20011;-94
2023/08/11 00:41:47;;;;;;;8.38;6.50;;;;;;;;;;6251120;22;20027;-93
2023/08/11 00:44:13;;;;;;;10.82;6.80;;;;;;;;;;6274407;22;20011;-95
2023/08/11 00:46:42;;;;;;;7.82;6.60;;;;;;;;;;6277612;22;20043;-94
2023/08/11 00:49:09;;;;;;;8.60;6.38;;;;;;;;;;6302434;22;20042;-93
2023/08/11 00:51:35;;;;;;;10.23;6.70;;;;;;;;;;6304682;22;20022;-94
2023/08/11 00:54:01;;;;;;;10.00;6.45;;;;;;;;;;6305550;22;20049;-94
2023/08/11 00:56:27;;;;;;;8.18;6.20;;;;;;;;;;6305703;22;20336;-94
2023/08/11 00:58:54;;;;;;;9.00;6.88;;;;;;;;;;6305468;22;20021;-94
2023/08/11 01:01:20;;;;;;;7.57;6.70;;;;;;;;;;6305443;22;20086;-92
2023/08/11 01:03:47;;;;;;;7.68;6.28;;;;;;;;;;6278484;22;20015;-95
2023/08/11 01:06:32;;;;;;;8.48;6.28;;;;;;;;;;6305121;22;20390;-94
2023/08/11 01:08:58;;;;;;;7.40;6.20;;;;;;;;;;6305278;22;20011;-93
2023/08/11 01:11:36;;;;;;;8.20;6.28;;;;;;;;;;6305856;22;20068;-94
2023/08/11 01:14:04;;;;;;;7.55;6.53;;;;;;;;;;6305214;22;20014;-93
2023/08/11 01:16:32;;;;;;;8.98;6.35;;;;;;;;;;6305650;22;20019;-93
2023/08/11 01:18:58;;;;;;;8.25;6.38;;;;;;;;;;6277567;22;20050;-94
2023/08/11 01:21:25;;;;;;;9.98;6.88;;;;;;;;;;6305865;22;20336;-93
2023/08/11 01:23:51;;;;;;;9.90;8.10;;;;;;;;;;6305539;22;20011;-94
2023/08/11 01:26:17;;;;;;;8.05;7.22;;;;;;;;;;6305410;22;20049;-94
2023/08/11 01:28:44;;;;;;;9.20;6.78;;;;;;;;;;6305057;22;20015;-94
2023/08/11 01:31:10;;;;;;;9.20;7.07;;;;;;;;;;6305141;22;20015;-94
2023/08/11 01:33:37;;;;;;;8.02;7.13;;;;;;;;;;6306183;22;20015;-94
2023/08/11 01:36:03;;;;;;;10.50;7.53;;;;;;;;;;6278386;22;20083;-94
2023/08/11 01:38:29;;;;;;;8.65;6.85;;;;;;;;;;6278256;22;20080;-95
2023/08/11 01:40:55;;;;;;;8.60;7.25;;;;;;;;;;6305671;22;20078;-95
2023/08/11 01:43:22;;;;;;;8.93;7.38;;;;;;;;;;6305081;22;20015;-94
2023/08/11 01:45:48;;;;;;;9.27;7.30;;;;;;;;;;6278961;22;20039;-94
2023/08/11 01:48:16;;;;;;;7.97;6.85;;;;;;;;;;6305332;22;20344;-94
2023/08/11 01:50:42;;;;;;;8.32;6.47;;;;;;;;;;6306102;22;20007;-94
2023/08/11 01:53:08;;;;;;;7.93;7.10;;;;;;;;;;6304946;22;20046;-93
2023/08/11 01:55:35;;;;;;;10.10;7.55;;;;;;;;;;6278475;22;20012;-94
2023/08/11 01:58:01;;;;;;;9.82;6.93;;;;;;;;;;6277210;22;20039;-94
2023/08/11 02:00:28;;;;;;;12.45;7.57;;;;;;;;;;6305086;22;20015;-94
2023/08/11 02:02:54;;;;;;;8.32;7.25;;;;;;;;;;6305262;22;20012;-94
2023/08/11 02:05:20;;;;;;;9.38;7.50;;;;;;;;;;6277889;22;20012;-94
2023/08/11 02:07:46;;;;;;;11.70;7.22;;;;;;;;;;6304727;22;20435;-93
2023/08/11 02:10:13;;;;;;;9.43;7.75;;;;;;;;;;6304694;22;20015;-94
2023/08/11 02:12:39;;;;;;;8.00;6.32;;;;;;;;;;6304785;22;20018;-94
2023/08/11 02:15:06;;;;;;;8.88;7.35;;;;;;;;;;6304900;22;20015;-93
2023/08/11 02:17:32;;;;;;;8.23;6.78;;;;;;;;;;6277920;22;20015;-94
2023/08/11 02:19:59;;;;;;;9.18;6.80;;;;;;;;;;6304017;22;20340;-93
2023/08/11 02:22:25;;;;;;;7.63;6.63;;;;;;;;;;6305065;22;20015;-93
2023/08/11 02:24:52;;;;;;;10.02;7.20;;;;;;;;;;6303994;22;20056;-93
2023/08/11 02:27:18;;;;;;;8.07;6.95;;;;;;;;;;6306545;22;20015;-96
2023/08/11 02:29:44;;;;;;;9.52;7.05;;;;;;;;;;6304199;22;20015;-91
2023/08/11 02:32:11;;;;;;;8.88;7.22;;;;;;;;;;6303151;22;20015;-90
2023/08/11 02:34:38;;;;;;;8.02;6.82;;;;;;;;;;6304011;22;20086;-91
2023/08/11 02:37:04;;;;;;;9.38;7.10;;;;;;;;;;6303712;22;20011;-90
2023/08/11 02:39:30;;;;;;;9.38;7.45;;;;;;;;;;6302791;22;20022;-91
2023/08/11 02:41:56;;;;;;;8.88;6.82;;;;;;;;;;6303702;22;20023;-91
2023/08/11 02:44:22;;;;;;;9.82;7.07;;;;;;;;;;6303679;22;20012;-91
2023/08/11 02:46:48;;;;;;;10.20;7.05;;;;;;;;;;6303696;22;20011;-90
2023/08/11 02:49:14;;;;;;;8.38;6.50;;;;;;;;;;6302395;22;20448;-91
2023/08/11 02:51:40;;;;;;;7.63;6.60;;;;;;;;;;6303882;22;20022;-91
2023/08/11 02:54:06;;;;;;;8.30;7.20;;;;;;;;;;6302106;22;20380;-90
2023/08/11 02:56:32;;;;;;;8.27;6.85;;;;;;;;;;6304002;22;20022;-91
2023/08/11 02:58:58;;;;;;;9.90;6.55;;;;;;;;;;6302908;22;20015;-91
2023/08/11 03:01:25;;;;;;;7.72;6.25;;;;;;;;;;6303848;22;20060;-91
2023/08/11 03:03:52;;;;;;;8.18;6.43;;;;;;;;;;6303192;22;20328;-91
2023/08/11 03:06:18;;;;;;;9.63;6.32;;;;;;;;;;6303067;22;20011;-91
2023/08/11 03:08:44;;;;;;;8.07;7.28;;;;;;;;;;6302540;22;20097;-91
2023/08/11 03:11:10;;;;;;;10.05;6.75;;;;;;;;;;6303051;22;20015;-91
2023/08/11 03:13:36;;;;;;;10.40;6.88;;;;;;;;;;6303292;22;20098;-91
2023/08/11 03:16:03;;;;;;;7.38;6.50;;;;;;;;;;6303030;22;20082;-90
2023/08/11 03:18:30;;;;;;;7.22;6.00;;;;;;;;;;6275994;22;20019;-88
2023/08/11 03:20:56;;;;;;;8.18;6.03;;;;;;;;;;6274859;22;20041;-90
2023/08/11 03:23:22;;;;;;;7.78;6.50;;;;;;;;;;6274642;22;20047;-90
2023/08/11 03:25:48;;;;;;;7.50;5.97;;;;;;;;;;6303702;22;20061;-90
2023/08/11 03:28:14;;;;;;;6.97;6.00;;;;;;;;;;6302621;22;20015;-90
2023/08/11 03:30:40;;;;;;;8.48;5.90;;;;;;;;;;6276263;22;20022;-90
2023/08/11 03:33:06;;;;;;;9.05;6.00;;;;;;;;;;6275476;22;20051;-91
2023/08/11 03:35:35;;;;;;;8.07;6.35;;;;;;;;;;6303746;22;20057;-91
2023/08/11 03:38:01;;;;;;;7.22;5.85;;;;;;;;;;6301804;22;20015;-91
2023/08/11 03:40:27;;;;;;;7.20;6.00;;;;;;;;;;6302844;22;20016;-90
2023/08/11 03:42:53;;;;;;;7.15;5.82;;;;;;;;;;6302864;22;20018;-91
2023/08/11 03:45:19;;;;;;;7.57;5.45;;;;;;;;;;6302817;22;20011;-90
2023/08/11 03:47:45;;;;;;;7.28;5.97;;;;;;;;;;6303997;22;20008;-90
2023/08/11 03:50:11;;;;;;;6.60;5.45;;;;;;;;;;6274889;22;20399;-90
2023/08/11 03:52:38;;;;;;;7.25;5.88;;;;;;;;;;6303040;22;20015;-91
2023/08/11 03:55:09;;;;;;;7.15;5.47;;;;;;;;;;6275261;22;20018;-91
2023/08/11 03:57:35;;;;;;;6.40;5.28;;;;;;;;;;6303386;22;20029;-90
2023/08/11 04:00:02;;;;;;;6.53;5.32;;;;;;;;;;6302557;22;20086;-90
2023/08/11 04:02:28;;;;;;;7.93;5.57;;;;;;;;;;6302375;22;20019;-91
2023/08/11 04:04:54;;;;;;;7.85;5.35;;;;;;;;;;6302334;22;20328;-90
2023/08/11 04:07:21;;;;;;;7.18;5.10;;;;;;;;;;6274826;22;20022;-90
2023/08/11 04:09:48;;;;;;;7.32;5.57;;;;;;;;;;6303153;22;20027;-90
2023/08/11 04:12:14;;;;;;;6.50;5.13;;;;;;;;;;6302666;22;20402;-91
2023/08/11 04:14:40;;;;;;;7.13;5.85;;;;;;;;;;6303320;22;20459;-90
2023/08/11 04:17:07;;;;;;;7.40;5.35;;;;;;;;;;6302609;22;20019;-91
2023/08/11 04:19:33;;;;;;;6.00;5.38;;;;;;;;;;6303298;22;20019;-90
2023/08/11 04:21:59;;;;;;;8.38;5.63;;;;;;;;;;6301557;22;20397;-91
2023/08/11 04:24:25;;;;;;;8.27;5.97;;;;;;;;;;6302531;22;20018;-91
2023/08/11 04:26:51;;;;;;;12.38;6.50;;;;;;;;;;6302864;22;20015;-91
2023/08/11 04:29:17;;;;;;;13.05;6.45;;;;;;;;;;6274982;22;20019;-91
2023/08/11 04:31:43;;;;;;;7.95;6.43;;;;;;;;;;6303396;22;20015;-90
2023/08/11 04:34:10;;;;;;;6.75;5.85;;;;;;;;;;6301723;22;20015;-90
2023/08/11 04:36:37;;;;;;;8.23;5.13;;;;;;;;;;6302626;22;20082;-90
2023/08/11 04:39:03;;;;;;;14.30;6.55;;;;;;;;;;6302327;22;20088;-90
2023/08/11 04:41:29;;;;;;;8.68;6.22;;;;;;;;;;6275075;22;20023;-91
2023/08/11 04:43:55;;;;;;;7.72;5.90;;;;;;;;;;6274425;22;20019;-91
2023/08/11 04:46:21;;;;;;;7.53;5.65;;;;;;;;;;6275613;22;20080;-91
2023/08/11 04:48:47;;;;;;;6.07;5.47;;;;;;;;;;6303775;22;20059;-90
2023/08/11 04:54:00;;;;;;;7.80;5.70;;;;;;;;;;6277724;22;20092;-92
2023/08/11 04:56:27;;;;;;;6.30;5.57;;;;;;;;;;6317182;22;20065;-96
2023/08/11 04:58:55;;;;;;;7.78;5.53;;;;;;;;;;6318614;22;20019;-94
2023/08/11 05:01:21;;;;;;;5.78;5.18;;;;;;;;;;6316417;22;20004;-93
2023/08/11 05:03:49;;;;;;;7.78;5.68;;;;;;;;;;6311577;22;20057;-93
2023/08/11 05:06:16;;;;;;;6.53;5.40;;;;;;;;;;6303943;22;20353;-90
2023/08/11 05:08:43;;;;;;;7.43;5.80;;;;;;;;;;6304918;22;20019;-91
2023/08/11 05:11:09;;;;;;;5.85;5.15;;;;;;;;;;6303447;22;20019;-92
2023/08/11 05:13:35;;;;;;;7.63;5.03;;;;;;;;;;6303703;22;20015;-91
2023/08/11 05:16:02;;;;;;;7.65;6.68;;;;;;;;;;6303204;22;20098;-92
2023/08/11 05:18:28;;;;;;;7.53;4.90;;;;;;;;;;6303627;22;20270;-92
2023/08/11 05:20:54;;;;;;;6.78;4.78;;;;;;;;;;6301895;22;20007;-89
2023/08/11 05:23:20;;;;;;;5.63;4.68;;;;;;;;;;6310197;22;20018;-95
2023/08/11 05:25:46;;;;;;;5.32;4.03;;;;;;;;;;6307112;22;20337;-95
2023/08/11 05:28:12;;;;;;;7.20;4.35;;;;;;;;;;6307134;22;20047;-96
2023/08/11 05:30:38;;;;;;;4.90;3.90;;;;;;;;;;6308983;22;20395;-93
2023/08/11 05:33:04;;;;;;;5.75;4.63;;;;;;;;;;6315476;22;20328;-96
2023/08/11 05:35:31;;;;;;;5.70;4.05;;;;;;;;;;6308020;22;20022;-96
2023/08/11 05:37:59;;;;;;;6.05;4.15;;;;;;;;;;6312950;22;20015;-96
2023/08/11 05:40:25;;;;;;;5.75;4.22;;;;;;;;;;6308823;22;20016;-96
2023/08/11 05:42:51;;;;;;;6.65;3.95;;;;;;;;;;6312530;22;20436;-96
2023/08/11 05:45:17;;;;;;;6.22;4.60;;;;;;;;;;6312086;22;20010;-92
2023/08/11 05:47:43;;;;;;;5.07;4.03;;;;;;;;;;6309243;22;20019;-89
2023/08/11 05:50:09;;;;;;;6.07;4.38;;;;;;;;;;6315252;22;20495;-96
2023/08/11 05:52:35;;;;;;;4.20;3.70;;;;;;;;;;6318198;22;20039;-94
2023/08/11 05:55:01;;;;;;;4.90;3.78;;;;;;;;;;6310095;22;20007;-92
2023/08/11 05:57:27;;;;;;;5.72;4.00;;;;;;;;;;6310599;22;20015;-93
2023/08/11 05:59:53;;;;;;;4.70;3.65;;;;;;;;;;6302990;22;20476;-87
2023/08/11 06:02:19;;;;;;;5.93;4.32;;;;;;;;;;6300232;22;20336;-86
2023/08/11 06:04:46;;;;;;;4.63;3.63;;;;;;;;;;6304376;22;20011;-87
2023/08/11 06:07:12;;;;;;;6.63;4.15;;;;;;;;;;6303807;22;20090;-88
2023/08/11 06:09:39;;;;;;;5.00;3.83;;;;;;;;;;6302852;22;20061;-88
2023/08/11 06:12:05;;;;;;;5.35;3.55;;;;;;;;;;6303600;22;20038;-89
2023/08/11 06:14:31;;;;;;;4.30;3.80;;;;;;;;;;6303957;22;20012;-87
2023/08/11 06:16:57;;;;;;;4.65;3.97;;;;;;;;;;6303386;22;20007;-87
2023/08/11 06:19:24;;;;;;;5.68;3.67;;;;;;;;;;6304443;22;20313;-88
2023/08/11 06:21:50;;;;;;;4.95;3.45;;;;;;;;;;6302675;22;20086;-87
2023/08/11 06:24:16;;;;;;;4.10;3.70;;;;;;;;;;6302077;22;20109;-88
2023/08/11 06:26:42;;;;;;;3.88;3.47;;;;;;;;;;6303450;22;20011;-88
2023/08/11 06:29:08;;;;;;;4.07;3.65;;;;;;;;;;6301158;22;20023;-87
2023/08/11 06:31:34;;;;;;;4.57;3.72;;;;;;;;;;6302068;22;20064;-94
2023/08/11 06:34:01;;;;;;;5.53;4.10;;;;;;;;;;6305275;22;20011;-94
2023/08/11 06:36:27;;;;;;;5.93;4.25;;;;;;;;;;6307114;22;20136;-94
2023/08/11 06:38:53;;;;;;;4.28;3.58;;;;;;;;;;6306321;22;20377;-93
2023/08/11 06:41:19;;;;;;;5.50;3.35;;;;;;;;;;6306240;22;20336;-94
2023/08/11 06:43:47;;;;;;;4.05;3.65;;;;;;;;;;6307352;22;20016;-90
2023/08/11 06:46:14;;;;;;;5.93;3.45;;;;;;;;;;6300907;22;20018;-91
2023/08/11 06:48:41;;;;;;;12.80;4.53;;;;;;;;;;6304631;22;20091;-92
2023/08/11 06:51:07;;;;;;;3.88;3.17;;;;;;;;;;6305096;22;20022;-90
2023/08/11 06:53:33;;;;;;;4.53;3.78;;;;;;;;;;6307954;22;20015;-93
2023/08/11 06:55:59;;;;;;;4.97;3.28;;;;;;;;;;6306051;22;20064;-96
2023/08/11 06:58:25;;;;;;;3.28;2.97;;;;;;;;;;6309833;22;20041;-90
2023/08/11 07:00:51;;;;;;;3.63;3.28;;;;;;;;;;6302610;22;20042;-93
2023/08/11 07:03:17;;;;;;;3.60;3.17;;;;;;;;;;6306914;22;20344;-94
2023/08/11 07:05:43;;;;;;;3.58;2.85;;;;;;;;;;6307141;22;20011;-91
2023/08/11 07:08:09;;;;;;;5.15;3.53;;;;;;;;;;6333157;22;20021;-90
2023/08/11 07:10:36;;;;;;;3.78;3.17;;;;;;;;;;6332505;22;20029;-87
2023/08/11 07:13:02;;;;;;;4.50;3.22;;;;;;;;;;6308158;22;20425;-94
2023/08/11 07:15:28;;;;;;;4.00;3.50;;;;;;;;;;6337924;22;20044;-93
2023/08/11 07:17:54;;;;;;;5.43;2.90;;;;;;;;;;6312827;22;20063;-93
2023/08/11 07:20:20;;;;;;;3.65;3.20;;;;;;;;;;6342738;22;20379;-95
2023/08/11 07:22:46;;;;;;;4.53;3.08;;;;;;;;;;6312830;22;20042;-96
2023/08/11 07:25:12;;;;;;;3.70;3.00;;;;;;;;;;6336675;22;20060;-88
2023/08/11 07:27:38;;;;;;;5.65;3.58;;;;;;;;;;6335588;22;20363;-90
2023/08/11 07:30:04;;;;;;;4.35;3.13;;;;;;;;;;6309829;22;20072;-92
2023/08/11 07:32:31;;;;;;;4.47;3.60;;;;;;;;;;6335545;22;20014;-90
2023/08/11 07:34:57;;;;;;;4.85;3.38;;;;;;;;;;6306210;22;20167;-88
2023/08/11 07:37:23;;;;;;;5.38;3.60;;;;;;;;;;6336435;22;20046;-86
2023/08/11 07:39:49;;;;;;;3.45;2.90;;;;;;;;;;6334244;22;20451;-86
2023/08/11 07:42:15;;;;;;;3.28;2.88;;;;;;;;;;6334118;22;20017;-87
2023/08/11 07:44:41;;;;;;;8.95;4.18;;;;;;;;;;6332952;22;20331;-86
2023/08/11 07:47:07;;;;;;;5.18;3.78;;;;;;;;;;6334137;22;20014;-85
2023/08/11 07:49:33;;;;;;;3.33;3.03;;;;;;;;;;6335294;22;20098;-86
2023/08/11 07:51:59;;;;;;;5.50;3.80;;;;;;;;;;6334407;22;20454;-85
2023/08/11 07:54:25;;;;;;;6.43;3.63;;;;;;;;;;6307163;22;20050;-86
2023/08/11 07:56:51;;;;;;;4.65;3.60;;;;;;;;;;6307329;22;20022;-85
2023/08/11 07:59:17;;;;;;;3.72;3.30;;;;;;;;;;6305510;22;20022;-85
2023/08/11 08:01:43;;;;;;;4.65;3.15;;;;;;;;;;6307045;22;20022;-88
2023/08/11 08:04:10;;;;;;;3.85;2.90;;;;;;;;;;6333319;22;20019;-87
2023/08/11 08:06:43;;;;;;;4.68;3.30;;;;;;;;;;6309465;22;20045;-90
2023/08/11 08:09:11;;;;;;;4.38;3.55;;;;;;;;;;6334484;22;20022;-94
2023/08/11 08:11:38;;;;;;;3.65;3.15;;;;;;;;;;6335378;22;20015;-92
2023/08/11 08:14:04;;;;;;;3.65;3.22;;;;;;;;;;6334621;22;20352;-94
2023/08/11 08:16:30;;;;;;;3.30;3.00;;;;;;;;;;6335282;22;20030;-92
2023/08/11 08:18:57;;;;;;;3.13;2.80;;;;;;;;;;6306835;22;20029;-91
2023/08/11 08:21:23;;;;;;;6.75;3.30;;;;;;;;;;6307704;22;20017;-93
2023/08/11 08:23:49;;;;;;;3.70;3.25;;;;;;;;;;6307452;22;20403;-91
2023/08/11 08:26:15;;;;;;;2.97;2.58;;;;;;;;;;6334481;22;20448;-91
2023/08/11 08:28:41;;;;;;;3.78;2.78;;;;;;;;;;6334525;22;20015;-91
2023/08/11 08:31:07;;;;;;;4.38;2.90;;;;;;;;;;6334803;22;20010;-90
2023/08/11 08:33:33;;;;;;;4.22;2.58;;;;;;;;;;6307272;22;20015;-91
2023/08/11 08:35:59;;;;;;;3.33;2.47;;;;;;;;;;6334540;22;20011;-91
2023/08/11 08:38:25;;;;;;;2.95;2.55;;;;;;;;;;6307389;22;20011;-94
2023/08/11 08:40:51;;;;;;;3.15;2.80;;;;;;;;;;6307343;22;20015;-92
2023/08/11 08:43:18;;;;;;;3.00;2.20;;;;;;;;;;6306393;22;20022;-93
2023/08/11 08:45:44;;;;;;;3.05;2.75;;;;;;;;;;6335882;22;20086;-90
2023/08/11 08:48:16;;;;;;;3.55;2.80;;;;;;;;;;6333825;22;20015;-93
2023/08/11 08:50:42;;;;;;;4.80;2.83;;;;;;;;;;6334895;22;20021;-94
2023/08/11 08:53:09;;;;;;;4.30;3.05;;;;;;;;;;6334890;22;20099;-89
2023/08/11 08:55:35;;;;;;;4.15;2.65;;;;;;;;;;6337461;22;20320;-92
2023/08/11 08:58:01;;;;;;;4.20;2.97;;;;;;;;;;6334781;22;20015;-92
2023/08/11 09:00:28;;;;;;;2.72;2.50;;;;;;;;;;6313112;22;20090;-93
2023/08/11 09:02:54;;;;;;;3.13;2.75;;;;;;;;;;6303462;22;20011;-90
2023/08/11 09:05:24;;;;;;;5.82;3.58;;;;;;;;;;6303570;22;20492;-92
2023/08/11 09:07:50;;;;;;;4.32;2.50;;;;;;;;;;6302411;22;20022;-95
2023/08/11 09:10:16;;;;;;;6.60;2.47;;;;;;;;;;6303674;22;20011;-92
2023/08/11 09:12:44;;;;;;;4.47;2.50;;;;;;;;;;6303900;22;20030;-93
2023/08/11 09:15:11;;;;;;;4.03;2.63;;;;;;;;;;6306234;22;20033;-92
2023/08/11 09:17:38;;;;;;;5.13;2.53;;;;;;;;;;6305943;22;20242;-92
2023/08/11 09:20:07;;;;;;;4.40;2.90;;;;;;;;;;6304948;22;20336;-93
2023/08/11 09:22:33;;;;;;;3.08;2.17;;;;;;;;;;6304193;22;20078;-93
2023/08/11 09:25:00;;;;;;;4.93;2.67;;;;;;;;;;6304327;22;20247;-91
2023/08/11 09:27:29;;;;;;;2.75;2.45;;;;;;;;;;6305472;22;20022;-91
2023/08/11 09:29:56;;;;;;;2.65;2.45;;;;;;;;;;6306593;22;20015;-94
2023/08/11 09:32:22;;;;;;;4.32;2.30;;;;;;;;;;6308696;22;20015;-94
2023/08/11 09:34:48;;;;;;;4.43;2.30;;;;;;;;;;6305149;22;20335;-91
2023/08/11 09:37:14;;;;;;;3.38;2.50;;;;;;;;;;6304860;22;20051;-94
2023/08/11 09:39:42;;;;;;;4.65;2.88;;;;;;;;;;6305871;22;20015;-91
2023/08/11 09:42:14;;;;;;;4.32;2.83;;;;;;;;;;6303509;22;20546;-90
2023/08/11 09:44:40;;;;;;;4.63;2.95;;;;;;;;;;6305682;22;20007;-92
2023/08/11 09:47:11;;;;;;;4.18;2.38;;;;;;;;;;6304407;22;20015;-93
2023/08/11 09:49:37;;;;;;;3.03;2.50;;;;;;;;;;6304109;22;20018;-91
2023/08/11 09:52:04;;;;;;;4.50;2.72;;;;;;;;;;6303620;22;20494;-92
2023/08/11 09:54:30;;;;;;;3.20;2.58;;;;;;;;;;6305507;22;20336;-93
2023/08/11 09:56:57;;;;;;;3.30;2.28;;;;;;;;;;6306324;22;20011;-93
2023/08/11 09:59:24;;;;;;;3.25;2.25;;;;;;;;;;6305213;22;20106;-92
2023/08/11 10:01:52;;;;;;;6.07;2.20;;;;;;;;;;6305518;22;20086;-94
2023/08/11 10:04:25;;;;;;;4.05;2.22;;;;;;;;;;6304929;22;20019;-93
2023/08/11 10:06:53;;;;;;;4.18;2.78;;;;;;;;;;6305018;22;20011;-92
2023/08/11 10:09:23;;;;;;;4.10;2.10;;;;;;;;;;6304273;22;20361;-92
2023/08/11 10:11:49;;;;;;;4.07;2.80;;;;;;;;;;6303669;22;20459;-92
2023/08/11 10:14:17;;;;;;;3.63;2.28;;;;;;;;;;6305581;22;20019;-92
2023/08/11 10:16:44;;;;;;;3.63;2.22;;;;;;;;;;6304078;22;20015;-92
2023/08/11 10:19:11;;;;;;;2.67;2.42;;;;;;;;;;6304396;22;20015;-91
2023/08/11 10:21:37;;;;;;;3.97;2.63;;;;;;;;;;6305114;22;20015;-91
2023/08/11 10:24:04;;;;;;;2.72;2.15;;;;;;;;;;6304077;22;20065;-92
2023/08/11 10:26:31;;;;;;;2.72;2.30;;;;;;;;;;6302807;22;20019;-94
2023/08/11 10:28:57;;;;;;;3.75;2.30;;;;;;;;;;6302792;22;20326;-90
2023/08/11 10:31:24;;;;;;;4.20;2.58;;;;;;;;;;6306558;22;20341;-95
2023/08/11 10:33:51;;;;;;;4.25;2.38;;;;;;;;;;6304015;22;20015;-92
2023/08/11 10:36:18;;;;;;;2.65;1.80;;;;;;;;;;6305404;22;20015;-92
2023/08/11 10:38:45;;;;;;;2.28;1.90;;;;;;;;;;6304990;22;20017;-92
2023/08/11 10:41:11;;;;;;;2.70;2.40;;;;;;;;;;6303931;22;20029;-90
2023/08/11 10:43:40;;;;;;;5.93;2.55;;;;;;;;;;6304676;22;20007;-90
2023/08/11 10:46:21;;;;;;;4.95;2.05;;;;;;;;;;6304613;22;20087;-92
2023/08/11 10:48:47;;;;;;;4.43;2.15;;;;;;;;;;6305221;22;20324;-92
2023/08/11 10:51:40;;;;;;;3.45;2.13;;;;;;;;;;6302224;22;20499;-92
2023/08/11 10:54:09;;;;;;;2.20;1.83;;;;;;;;;;6298984;22;20038;-93
2023/08/11 10:56:39;;;;;;;3.03;2.10;;;;;;;;;;6308521;22;20060;-91
2023/08/11 10:59:14;;;;;;;2.75;2.22;;;;;;;;;;6303711;22;20015;-91
2023/08/11 11:01:41;;;;;;;3.15;2.67;;;;;;;;;;6302980;22;20336;-90
2023/08/11 11:04:08;;;;;;;4.20;2.20;;;;;;;;;;6303824;22;20499;-91
2023/08/11 11:06:35;;;;;;;2.50;2.20;;;;;;;;;;6304513;22;20029;-92
2023/08/11 11:09:02;;;;;;;2.35;1.77;;;;;;;;;;6304582;22;20318;-93
2023/08/11 11:11:30;;;;;;;2.95;2.05;;;;;;;;;;6304367;22;20360;-93
2023/08/11 11:13:56;;;;;;;3.80;2.38;;;;;;;;;;6302239;22;20318;-91
2023/08/11 11:16:22;;;;;;;3.40;1.70;;;;;;;;;;6304752;22;20018;-94
2023/08/11 11:18:49;;;;;;;3.90;2.05;;;;;;;;;;6304534;22;20343;-91
2023/08/11 11:21:15;;;;;;;2.25;1.65;;;;;;;;;;6301917;22;20080;-89
2023/08/11 11:23:44;;;;;;;3.17;1.80;;;;;;;;;;6303891;22;20141;-90
2023/08/11 11:26:10;;;;;;;2.17;1.85;;;;;;;;;;6303257;22;20015;-92
2023/08/11 11:28:36;;;;;;;2.50;1.98;;;;;;;;;;6305168;22;20088;-92
2023/08/11 11:31:02;;;;;;;5.03;2.10;;;;;;;;;;6302516;22;20016;-92
2023/08/11 11:33:28;;;;;;;2.75;2.08;;;;;;;;;;6301931;22;20072;-91
2023/08/11 11:35:54;;;;;;;2.95;2.03;;;;;;;;;;6275337;22;20073;-91
2023/08/11 11:38:22;;;;;;;1.88;1.60;;;;;;;;;;6302039;22;20019;-92
2023/08/11 11:40:49;;;;;;;2.25;1.80;;;;;;;;;;6302903;22;20424;-91
2023/08/11 11:43:15;;;;;;;6.78;1.83;;;;;;;;;;6301552;22;20019;-91
2023/08/11 11:45:41;;;;;;;3.85;1.33;;;;;;;;;;6302715;22;20015;-91
2023/08/11 11:48:07;;;;;;;5.13;2.20;;;;;;;;;;6303603;22;20011;-90
2023/08/11 11:50:34;;;;;;;2.17;1.80;;;;;;;;;;6303320;22;20019;-92
2023/08/11 11:53:00;;;;;;;3.58;2.10;;;;;;;;;;6303732;22;20340;-90
2023/08/11 11:55:27;;;;;;;3.08;2.00;;;;;;;;;;6303388;22;20036;-90
2023/08/11 11:57:56;;;;;;;2.05;1.60;;;;;;;;;;6303480;22;20098;-92
2023/08/11 12:00:25;;;;;;;2.33;1.70;;;;;;;;;;6303430;22;20015;-93
2023/08/11 12:02:51;;;;;;;2.47;2.00;;;;;;;;;;6302093;22;20039;-91
2023/08/11 12:05:17;;;;;;;2.25;1.60;;;;;;;;;;6302752;22;20332;-91
2023/08/11 12:07:43;;;;;;;3.42;1.75;;;;;;;;;;6302080;22;20273;-93
2023/08/11 12:10:09;;;;;;;5.70;1.90;;;;;;;;;;6301284;22;20038;-91
2023/08/11 12:12:35;;;;;;;2.25;2.05;;;;;;;;;;6303791;22;20007;-90
2023/08/11 12:15:05;;;;;;;3.78;2.25;;;;;;;;;;6303342;22;20045;-90
2023/08/11 12:17:32;;;;;;;2.90;1.95;;;;;;;;;;6303474;22;20074;-90
2023/08/11 12:19:58;;;;;;;3.85;2.30;;;;;;;;;;6300761;22;20076;-90
2023/08/11 12:22:24;;;;;;;4.32;1.67;;;;;;;;;;6303770;22;20011;-91
2023/08/11 12:24:50;;;;;;;2.67;1.92;;;;;;;;;;6301444;22;20344;-89
2023/08/11 12:27:16;;;;;;;2.92;2.10;;;;;;;;;;6303019;22;20015;-93
2023/08/11 12:29:42;;;;;;;2.08;1.75;;;;;;;;;;6303862;22;20011;-92
2023/08/11 12:32:08;;;;;;;3.13;2.17;;;;;;;;;;6302887;22;20015;-89
2023/08/11 12:34:34;;;;;;;3.90;2.10;;;;;;;;;;6303271;22;20082;-93
2023/08/11 12:37:00;;;;;;;4.15;2.60;;;;;;;;;;6302909;22;20022;-92
2023/08/11 12:39:29;;;;;;;4.03;1.83;;;;;;;;;;6303254;22;20011;-89
2023/08/11 12:41:55;;;;;;;2.40;1.90;;;;;;;;;;6301294;22;20437;-91
2023/08/11 12:44:21;;;;;;;4.47;2.03;;;;;;;;;;6301630;22;20018;-94
2023/08/11 12:46:47;;;;;;;4.22;2.17;;;;;;;;;;6301424;22;20065;-92
2023/08/11 12:49:13;;;;;;;3.88;1.70;;;;;;;;;;6302395;22;20069;-92
2023/08/11 12:51:39;;;;;;;2.55;2.00;;;;;;;;;;6302604;22;20087;-93
2023/08/11 12:54:05;;;;;;;5.82;1.70;;;;;;;;;;6303209;22;20018;-93
2023/08/11 12:56:31;;;;;;;3.60;1.85;;;;;;;;;;6304794;22;20011;-91
2023/08/11 12:58:57;;;;;;;4.82;2.20;;;;;;;;;;6304723;22;20098;-91
2023/08/11 13:01:24;;;;;;;3.38;2.30;;;;;;;;;;6303951;22;20018;-93
2023/08/11 13:03:51;;;;;;;2.90;1.52;;;;;;;;;;6303114;22;20011;-93
2023/08/11 13:06:17;;;;;;;3.55;1.90;;;;;;;;;;6303127;22;20079;-93
2023/08/11 13:08:43;;;;;;;2.90;2.13;;;;;;;;;;6303637;22;20030;-90
2023/08/11 13:11:09;;;;;;;4.43;2.05;;;;;;;;;;6300498;22;20019;-92
2023/08/11 13:13:35;;;;;;;4.43;2.00;;;;;;;;;;6303699;22;20011;-90
2023/08/11 13:16:01;;;;;;;8.05;2.40;;;;;;;;;;6302709;22;20012;-91
2023/08/11 13:18:27;;;;;;;4.40;2.35;;;;;;;;;;6302744;22;20641;-92
2023/08/11 13:20:54;;;;;;;2.88;2.20;;;;;;;;;;6303179;22;20324;-90
2023/08/11 13:23:20;;;;;;;5.25;2.05;;;;;;;;;;6303245;22;20016;-90
2023/08/11 13:25:46;;;;;;;4.40;2.30;;;;;;;;;;6301941;22;20078;-88
2023/08/11 13:28:12;;;;;;;3.08;2.05;;;;;;;;;;6302284;22;20018;-92
2023/08/11 13:30:38;;;;;;;3.53;2.20;;;;;;;;;;6301687;22;20019;-90
2023/08/11 13:33:04;;;;;;;4.20;2.75;;;;;;;;;;6300619;22;20094;-93
2023/08/11 13:35:31;;;;;;;4.30;3.22;;;;;;;;;;6303095;22;20072;-90
2023/08/11 13:37:58;;;;;;;2.85;2.10;;;;;;;;;;6302236;22;20022;-92
2023/08/11 13:40:24;;;;;;;4.72;2.20;;;;;;;;;;6301317;22;20016;-90
2023/08/11 13:42:50;;;;;;;4.32;2.40;;;;;;;;;;6302744;22;20437;-91
2023/08/11 13:45:16;;;;;;;2.90;2.60;;;;;;;;;;6302554;22;20072;-91
2023/08/11 13:47:42;;;;;;;3.08;2.72;;;;;;;;;;6302779;22;20011;-91
2023/08/11 13:50:09;;;;;;;4.15;3.10;;;;;;;;;;6302346;22;20038;-91
2023/08/11 13:52:35;;;;;;;2.90;2.38;;;;;;;;;;6301480;22;20440;-89
2023/08/11 13:55:02;;;;;;;3.30;1.90;;;;;;;;;;6303076;22;20015;-90
2023/08/11 13:57:28;;;;;;;4.85;2.08;;;;;;;;;;6301334;22;20019;-89
2023/08/11 13:59:58;;;;;;;2.80;2.55;;;;;;;;;;6303823;22;20332;-91
2023/08/11 14:02:25;;;;;;;2.60;2.40;;;;;;;;;;6302493;22;20050;-89
2023/08/11 14:04:51;;;;;;;3.92;2.50;;;;;;;;;;6304861;22;20076;-88
2023/08/11 14:07:18;;;;;;;3.58;2.53;;;;;;;;;;6304411;22;20018;-90
2023/08/11 14:09:44;;;;;;;4.13;2.40;;;;;;;;;;6305371;22;20019;-91
2023/08/11 14:12:10;;;;;;;2.90;2.42;;;;;;;;;;6303829;22;20015;-90
2023/08/11 14:14:36;;;;;;;3.47;2.22;;;;;;;;;;6303375;22;20334;-91
2023/08/11 14:17:03;;;;;;;3.13;2.35;;;;;;;;;;6303739;22;20015;-91
2023/08/11 14:19:29;;;;;;;3.33;2.38;;;;;;;;;;6304541;22;20015;-88
2023/08/11 14:21:55;;;;;;;2.10;1.90;;;;;;;;;;6304148;22;20030;-90
2023/08/11 14:24:21;;;;;;;2.60;2.25;;;;;;;;;;6304347;22;20018;-92
2023/08/11 14:26:47;;;;;;;3.53;2.30;;;;;;;;;;6303070;22;20397;-90
2023/08/11 14:29:13;;;;;;;3.15;2.30;;;;;;;;;;6303927;22;20478;-89
2023/08/11 14:31:39;;;;;;;3.50;2.40;;;;;;;;;;6304079;22;20076;-91
2023/08/11 14:34:07;;;;;;;2.80;2.30;;;;;;;;;;6304055;22;20073;-91
2023/08/11 14:36:33;;;;;;;5.00;2.30;;;;;;;;;;6304691;22;20052;-89
2023/08/11 14:39:04;;;;;;;2.75;2.50;;;;;;;;;;6303925;22;20066;-89
2023/08/11 14:41:30;;;;;;;2.92;2.33;;;;;;;;;;6302802;22;20021;-92